Flight Track Log - Related Links

Times and Time Zones

All times are in EDT time to prevent confusion due to time zone crossing. See the UAL481 flight status page for this flight to view local times or setup timezone preferences in your user account.


Time Position Orientation Groundspeed Altitude Reporting Facility
EDT Latitude Longitude Course Direction KTS MPH feet Rate Location/Type
Wed 07:17:11 PM 42.7297 -73.8081 200° South 148 170 1,400  Level Boston Center
Wed 07:18:34 PM 42.6711 -73.8378 200° South 220 253 4,700 2,344 Climbing Boston Center
Wed 07:19:19 PM 42.7081 -73.8839 317° Northwest 274 315 6,400 2,604 Climbing Boston Center
Wed 07:20:20 PM 42.7806 -73.9194 340° North 300 345 9,300 2,924 Climbing Boston Center
Wed 07:21:18 PM 42.8572 -73.9583 340° North 305 351 12,200 1,950 Climbing Boston Center
Wed 07:22:20 PM 42.9358 -73.9942 342° North 313 360 13,200 1,686 Climbing Boston Center
Wed 07:23:19 PM 43.0414 -74.0481 340° North 359 413 15,600 2,281 Climbing Boston Center
Wed 07:24:21 PM 43.1344 -74.0931 341° North 382 440 17,800 2,017 Climbing Boston Center
Wed 07:25:18 PM 43.2461 -74.1503 340° North 388 447 19,600 1,878 Climbing Boston Center
Wed 07:26:32 PM 43.3192 -74.2836 307° West 354 407 21,900 1,522 Climbing Boston Center
Wed 07:27:32 PM 43.3311 -74.4381 276° West 365 420 23,000 1,373 Climbing Boston Center
Wed 07:28:30 PM 43.3431 -74.5869 276° West 377 434 24,600 1,613 Climbing Boston Center
Wed 07:29:31 PM 43.3486 -74.7358 273° West 393 452 26,200 1,289 Climbing Boston Center
Wed 07:30:31 PM 43.3453 -74.8925 268° West 398 458 27,200 1,328 Climbing Boston Center
Wed 07:31:33 PM 43.3419 -75.0439 268° West 403 464 28,900 1,400 Climbing Boston Center
Wed 07:32:31 PM 43.3383 -75.2008 268° West 403 464 30,000 559 Climbing Boston Center
Wed 07:33:31 PM 43.3344 -75.3547 268° West 403 464 30,000  Level Boston Center
Wed 07:34:32 PM 43.3308 -75.4917 268° West 396 456 30,000 -50 Level Boston Center
Wed 07:35:30 PM 43.3289 -75.6400 269° West 396 456 29,900 -51 Descending Boston Center
Wed 07:36:30 PM 43.3225 -75.7908 267° West 402 463 29,900  Level Boston Center
Wed 07:37:30 PM 43.3200 -75.9450 269° West 402 463 29,900 50 Level Boston Center
Wed 07:38:31 PM 43.3153 -76.0958 268° West 402 463 30,000 49 Climbing Boston Center
Wed 07:39:32 PM 43.3100 -76.2497 267° West 402 463 30,000  Level Boston Center
Wed 07:40:51 PM 43.3017 -76.4608 267° West 399 459 30,000 -43 Level Cleveland Center
Wed 07:41:51 PM 43.2986 -76.6094 268° West 399 459 29,900 -50 Descending Cleveland Center
Wed 07:42:51 PM 43.2914 -76.7639 266° West 405 466 29,900 50 Level Cleveland Center
Wed 07:43:51 PM 43.2878 -76.9153 268° West 405 466 30,000 525 Climbing Cleveland Center
Wed 07:46:00 PM 43.2632 -77.1785 267° West  Level FlightAware Approximate
Wed 07:46:51 PM 43.2644 -77.3900 267° West 405 466 32,000  Level Cleveland Center
Wed 07:47:51 PM 43.2581 -77.5444 267° West 405 466 32,000  Level Cleveland Center
Wed 07:48:51 PM 43.2517 -77.6986 267° West 405 466 32,000  Level Cleveland Center
Wed 07:49:51 PM 43.2450 -77.8500 267° West 405 466 32,000  Level Cleveland Center
Wed 07:50:52 PM 43.2381 -78.0014 266° West 405 466 32,000  Level Cleveland Center
Wed 07:51:51 PM 43.2289 -78.1528 265° West 405 466 32,000  Level Cleveland Center
Wed 07:52:51 PM 43.2214 -78.3069 266° West 405 466 32,000  Level Cleveland Center
Wed 07:53:51 PM 43.2139 -78.4553 266° West 405 466 32,000  Level Cleveland Center
Wed 07:54:51 PM 43.2061 -78.6067 266° West 405 466 32,000  Level Cleveland Center
Wed 07:55:51 PM 43.1981 -78.7550 266° West 405 466 32,000  Level Cleveland Center
Wed 07:56:51 PM 43.1878 -78.9033 265° West 405 466 32,000  Level Cleveland Center
Wed 07:58:07 PM 43.2000 -79.0667 276° West 390 449 32,000  Level Toronto Center
Wed 07:59:07 PM 43.2333 -79.2167 287° West 390 449 32,000  Level Toronto Center
Wed 08:00:07 PM 43.2500 -79.3667 279° West 390 449 32,000  Level Toronto Center
Wed 08:01:07 PM 43.2833 -79.5000 289° West 390 449 32,000  Level Toronto Center
Wed 08:02:07 PM 43.3167 -79.6333 289° West 380 437 32,000  Level Toronto Center
Wed 08:03:07 PM 43.3333 -79.7667 280° West 390 449 32,000  Level Toronto Center
Wed 08:04:07 PM 43.3667 -79.9000 289° West 380 437 32,000  Level Toronto Center
Wed 08:05:07 PM 43.4000 -80.0667 285° West 380 437 32,000  Level Toronto Center
Wed 08:06:07 PM 43.4333 -80.2000 289° West 380 437 32,000  Level Toronto Center
Wed 08:07:07 PM 43.4667 -80.3500 287° West 380 437 32,000  Level Toronto Center
Wed 08:08:07 PM 43.4833 -80.4833 280° West 380 437 32,000  Level Toronto Center
Wed 08:09:07 PM 43.5167 -80.6167 289° West 370 426 32,000  Level Toronto Center
Wed 08:10:07 PM 43.5500 -80.7667 287° West 370 426 32,000  Level Toronto Center
Wed 08:11:07 PM 43.5667 -80.8833 281° West 370 426 32,000  Level Toronto Center
Wed 08:12:07 PM 43.6000 -81.0167 289° West 380 437 32,000  Level Toronto Center
Wed 08:13:07 PM 43.6333 -81.1500 289° West 380 437 32,000  Level Toronto Center
Wed 08:14:07 PM 43.6667 -81.3000 287° West 370 426 32,000  Level Toronto Center
Wed 08:15:07 PM 43.6500 -81.4333 260° West 380 437 32,000  Level Toronto Center
Wed 08:16:07 PM 43.6000 -81.5833 245° Southwest 390 449 32,000 600 Level Toronto Center
Wed 08:17:07 PM 43.5667 -81.7333 253° West 390 449 33,200 1,000 Climbing Toronto Center
Wed 08:18:07 PM 43.5333 -81.8667 251° West 390 449 34,000 400 Climbing Toronto Center
Wed 08:19:07 PM 43.4833 -81.9833 239° Southwest 380 437 34,000  Level Toronto Center
Wed 08:20:07 PM 43.4333 -82.1333 245° Southwest 380 437 34,000  Level Toronto Center
Wed 08:20:52 PM 43.4303 -82.2183 267° West 384 442 34,000  Level Cleveland Center
Wed 08:21:51 PM 43.4011 -82.3547 254° West 384 442 34,000  Level Cleveland Center
Wed 08:22:52 PM 43.3697 -82.4881 252° West 384 442 34,000 -50 Level Cleveland Center
Wed 08:23:52 PM 43.3381 -82.6383 254° West 378 435 33,900 -555 Descending Cleveland Center
Wed 08:24:51 PM 43.3083 -82.7742 253° West 378 435 32,900 -857 Descending Cleveland Center
Wed 08:25:51 PM 43.2744 -82.9100 251° West 378 435 32,200 -450 Descending Cleveland Center
Wed 08:26:51 PM 43.2444 -83.0514 254° West 383 441 32,000 -100 Descending Cleveland Center
Wed 08:27:51 PM 43.2125 -83.1867 252° West 383 441 32,000  Level Cleveland Center
Wed 08:28:51 PM 43.1819 -83.3250 253° West 378 435 32,000  Level Cleveland Center
Wed 08:29:52 PM 43.1517 -83.4631 253° West 378 435 32,000  Level Cleveland Center
Wed 08:30:51 PM 43.1189 -83.6039 252° West 378 435 32,000  Level Cleveland Center
Wed 08:31:51 PM 43.0861 -83.7386 252° West 378 435 32,000  Level Cleveland Center
Wed 08:32:52 PM 43.0550 -83.8764 253° West 378 435 32,000  Level Cleveland Center
Wed 08:33:51 PM 43.0219 -84.0167 252° West 378 435 32,000  Level Cleveland Center
Wed 08:34:51 PM 42.9864 -84.1567 251° West 383 441 32,000  Level Cleveland Center
Wed 08:35:30 PM 42.9719 -84.2167 252° West 384 442 32,000  Level Chicago Center
Wed 08:36:32 PM 42.9325 -84.3833 252° West 385 443 32,000  Level Chicago Center
Wed 08:37:34 PM 42.8983 -84.5208 251° West 385 443 32,000  Level Chicago Center
Wed 08:38:37 PM 42.8758 -84.6636 258° West 387 445 32,000  Level Chicago Center
Wed 08:39:39 PM 42.8617 -84.8064 262° West 383 441 32,000  Level Chicago Center
Wed 08:40:41 PM 42.8453 -84.9500 261° West 383 441 32,000  Level Chicago Center
Wed 08:41:43 PM 42.8306 -85.0931 262° West 383 441 32,000  Level Chicago Center
Wed 08:42:45 PM 42.8117 -85.2653 262° West 383 441 32,000  Level Chicago Center
Wed 08:43:47 PM 42.7958 -85.4108 262° West 386 444 32,000 -194 Level Chicago Center
Wed 08:44:49 PM 42.7767 -85.5533 260° West 383 441 31,600 -1,210 Descending Chicago Center
Wed 08:45:51 PM 42.7506 -85.6983 256° West 391 450 29,500 -2,177 Descending Chicago Center
Wed 08:46:53 PM 42.7244 -85.8406 256° West 388 447 27,100 -2,323 Descending Chicago Center
Wed 08:47:55 PM 42.6997 -85.9789 256° West 377 434 24,700 -2,304 Descending Chicago Center
Wed 08:48:58 PM 42.6736 -86.1192 256° West 379 436 22,300 -2,256 Descending Chicago Center
Wed 08:50:00 PM 42.6433 -86.2817 256° West 371 427 20,000 -1,113 Descending Chicago Center
Wed 08:51:02 PM 42.6181 -86.4122 255° West 360 414 20,000  Level Chicago Center
Wed 08:52:04 PM 42.5931 -86.5464 256° West 366 421 20,000  Level Chicago Center
Wed 08:53:06 PM 42.5678 -86.6917 257° West 363 418 20,000 -823 Level Chicago Center
Wed 08:54:08 PM 42.5350 -86.8239 251° West 371 427 18,300 -1,839 Descending Chicago Center
Wed 08:55:10 PM 42.5022 -86.9417 249° West 370 426 16,200 -2,274 Descending Chicago Center
Wed 08:56:12 PM 42.4594 -87.0919 249° West 358 412 13,600 -2,371 Descending Chicago Center
Wed 08:57:14 PM 42.4256 -87.2147 250° West 351 404 11,300 -1,742 Descending Chicago Center
Wed 08:58:16 PM 42.3931 -87.3344 250° West 341 392 10,000 -629 Descending Chicago Center
Wed 08:59:18 PM 42.3614 -87.4522 250° West 319 367 10,000 -624 Level Chicago Center
Wed 09:00:21 PM 42.3331 -87.5450 248° West 276 318 8,700 -960 Descending Chicago Center
Wed 09:01:23 PM 42.2717 -87.6069 217° Southwest 278 320 8,000 -484 Descending Chicago Center
Wed 09:02:25 PM 42.2094 -87.6719 218° Southwest 283 326 7,700 -484 Descending Chicago Center
Wed 09:03:27 PM 42.1381 -87.7475 218° Southwest 276 318 7,000 -339 Descending Chicago Center
Wed 09:04:29 PM 42.1069 -87.8414 246° West 279 321 7,000  Level Chicago Center
Wed 09:05:02 PM 42.1000 -87.9000 261° West 268 308 7,000  Level Chicago TRACON
Wed 09:06:08 PM 42.1000 -87.9833 270° West 203 234 7,000 -300 Level Chicago TRACON
Wed 09:07:02 PM 42.0833 -88.0500 251° West 179 206 6,400 -895 Descending Chicago TRACON
Wed 09:08:02 PM 42.0833 -88.1167 270° West 177 204 5,300 -1,137 Descending Chicago TRACON
Wed 09:08:37 PM 42.0794 -88.1517 261° West 182 209 4,600 -1,237 Descending Chicago Center
Wed 09:09:39 PM 42.0267 -88.1514 180° South 194 223 3,300 -1,043 Descending Chicago Center
Wed 09:10:09 PM 42.0167 -88.1167 111° Southeast 185 213 3,000 -357 Descending Chicago TRACON
Wed 09:11:03 PM 42.0000 -88.0667 114° Southeast 178 205 2,800 -579 Descending Chicago TRACON
Wed 09:12:03 PM 41.9833 -88.0000 109° East 149 171 1,900 -800 Descending Chicago TRACON
Wed 09:13:03 PM 41.9833 -87.9500 90° East 135 155 1,200 -700 Descending Chicago TRACON

Login

Don't have an account? Register now (free) for customized features, flight alerts, and more!